Time;durP1;ratioP1;P1;durP2;ratioP2;P2;SDS_P1;SDS_P2;PMS_P1;PMS_P2;Temp;Humidity;BMP_temperature;BMP_pressure;BME280_temperature;BME280_humidity;BME280_pressure;Samples;Min_cycle;Max_cycle;Signal;HPM_P1;HPM_P2
2021/07/13 00:01:28;;;;;;;1.50;1.10;;;24.10;61.20;;;;;;5011227;28;20923;-64
2021/07/13 00:03:54;;;;;;;1.40;1.10;;;24.10;61.20;;;;;;5009733;28;20429;-64
2021/07/13 00:06:21;;;;;;;1.43;1.10;;;24.10;61.20;;;;;;5013780;28;20435;-64
2021/07/13 00:08:51;;;;;;;1.67;1.30;;;24.10;61.20;;;;;;5014826;28;20795;-64
2021/07/13 00:11:17;;;;;;;1.50;1.10;;;24.10;61.20;;;;;;5013887;28;20392;-64
2021/07/13 00:13:43;;;;;;;1.52;1.10;;;24.10;61.20;;;;;;5014706;28;20404;-64
2021/07/13 00:16:11;;;;;;;1.67;1.20;;;24.10;61.20;;;;;;5014644;28;20407;-64
2021/07/13 00:18:37;;;;;;;1.35;1.10;;;24.10;61.20;;;;;;5014335;28;20401;-64
2021/07/13 00:21:04;;;;;;;1.40;1.00;;;24.10;61.10;;;;;;5014391;28;20458;-64
2021/07/13 00:23:30;;;;;;;1.48;1.00;;;24.10;61.20;;;;;;5014455;28;20389;-64
2021/07/13 00:25:55;;;;;;;1.50;1.20;;;24.10;61.20;;;;;;5013278;28;20478;-64
2021/07/13 00:28:21;;;;;;;1.40;1.10;;;24.10;61.10;;;;;;5014467;28;20481;-64
2021/07/13 00:30:47;;;;;;;1.67;1.00;;;24.10;61.10;;;;;;5014276;28;20415;-64
2021/07/13 00:33:14;;;;;;;2.03;1.08;;;24.10;61.10;;;;;;5013768;28;20416;-64
2021/07/13 00:35:40;;;;;;;1.50;1.00;;;24.10;61.00;;;;;;5014258;28;20454;-64
2021/07/13 00:38:06;;;;;;;2.00;1.20;;;24.10;61.10;;;;;;5013055;28;20758;-64
2021/07/13 00:40:31;;;;;;;2.20;1.10;;;24.10;61.10;;;;;;5014058;28;20415;-64
2021/07/13 00:42:57;;;;;;;2.05;1.10;;;24.10;61.10;;;;;;5014213;28;20432;-63
2021/07/13 00:45:24;;;;;;;1.50;1.00;;;24.00;61.10;;;;;;5013656;28;20803;-64
2021/07/13 00:47:51;;;;;;;1.15;1.00;;;24.10;61.10;;;;;;5014059;28;20480;-63
2021/07/13 00:50:18;;;;;;;2.00;1.20;;;24.00;61.10;;;;;;5013984;28;20385;-63
2021/07/13 00:52:44;;;;;;;1.60;1.10;;;24.00;61.00;;;;;;5013893;28;20420;-63
2021/07/13 00:55:11;;;;;;;1.90;1.10;;;24.10;61.10;;;;;;5013393;28;20471;-63
2021/07/13 00:57:38;;;;;;;1.75;1.20;;;24.00;61.00;;;;;;5013792;28;20491;-63
2021/07/13 01:00:12;;;;;;;2.20;1.23;;;24.00;61.10;;;;;;5014142;28;20393;-63
2021/07/13 01:02:38;;;;;;;1.50;1.02;;;24.00;61.00;;;;;;5013621;28;20389;-63
2021/07/13 01:05:13;;;;;;;1.90;1.10;;;24.00;61.00;;;;;;5013389;28;20391;-63
2021/07/13 01:08:07;;;;;;;1.50;1.08;;;24.00;61.10;;;;;;5013564;28;20412;-63
2021/07/13 01:10:56;;;;;;;1.20;0.90;;;24.00;61.10;;;;;;5008602;28;20432;-64
2021/07/13 01:13:31;;;;;;;2.25;0.90;;;24.00;61.00;;;;;;5012301;28;20778;-64
2021/07/13 01:16:25;;;;;;;1.90;1.02;;;24.00;61.00;;;;;;5011773;28;20413;-63
2021/07/13 01:19:20;;;;;;;1.48;1.20;;;24.00;61.00;;;;;;5013084;28;20384;-63
2021/07/13 01:21:59;;;;;;;1.73;1.20;;;24.00;61.00;;;;;;5010889;28;20435;-64
2021/07/13 01:24:53;;;;;;;1.70;1.10;;;24.00;61.00;;;;;;5012031;28;20532;-63
2021/07/13 01:27:43;;;;;;;1.63;1.17;;;23.90;60.90;;;;;;5012734;28;20389;-64
2021/07/13 01:30:21;;;;;;;2.05;1.20;;;23.90;61.00;;;;;;5013332;28;20392;-63
2021/07/13 01:32:53;;;;;;;1.47;1.00;;;23.90;61.00;;;;;;5013224;28;20525;-63
2021/07/13 01:35:24;;;;;;;1.45;0.90;;;23.90;60.90;;;;;;5012537;28;20467;-63
2021/07/13 01:37:55;;;;;;;1.30;1.00;;;23.90;60.90;;;;;;5011841;28;20892;-63
2021/07/13 01:40:21;;;;;;;2.00;1.20;;;23.90;61.00;;;;;;5011409;28;20412;-63
2021/07/13 01:42:47;;;;;;;1.50;1.20;;;23.90;61.50;;;;;;5013033;28;20400;-63
2021/07/13 01:45:14;;;;;;;2.00;1.08;;;23.90;61.00;;;;;;5012553;28;20396;-63
2021/07/13 01:47:40;;;;;;;1.48;1.17;;;23.90;60.90;;;;;;5013015;28;20451;-63
2021/07/13 01:50:08;;;;;;;1.80;1.10;;;23.90;60.90;;;;;;5012937;28;20894;-63
2021/07/13 01:52:36;;;;;;;2.00;1.10;;;23.90;61.00;;;;;;5012811;28;20431;-63
2021/07/13 01:55:06;;;;;;;1.27;1.00;;;23.90;60.90;;;;;;5012649;28;20479;-64
2021/07/13 01:57:33;;;;;;;1.83;0.98;;;23.90;60.90;;;;;;5012772;28;20475;-63
2021/07/13 02:00:03;;;;;;;2.10;1.17;;;23.90;60.90;;;;;;5012694;28;20407;-63
2021/07/13 02:02:30;;;;;;;1.40;1.10;;;23.90;61.00;;;;;;5012619;28;21021;-63
2021/07/13 02:04:58;;;;;;;1.77;0.90;;;23.80;60.80;;;;;;5012754;28;20389;-64
2021/07/13 02:07:24;;;;;;;1.77;1.23;;;23.90;60.90;;;;;;5012050;28;20435;-64
2021/07/13 02:09:51;;;;;;;1.73;1.20;;;23.80;60.90;;;;;;5012676;28;20400;-63
2021/07/13 02:12:17;;;;;;;2.40;1.20;;;23.90;61.00;;;;;;5012165;28;20899;-64
2021/07/13 02:14:43;;;;;;;1.75;1.20;;;23.80;60.90;;;;;;5011280;28;20467;-63
2021/07/13 02:17:11;;;;;;;2.03;1.17;;;23.80;60.90;;;;;;5012033;28;20384;-64
2021/07/13 02:19:37;;;;;;;1.58;1.15;;;23.80;60.90;;;;;;5012206;28;20385;-63
2021/07/13 02:22:03;;;;;;;1.60;1.00;;;23.80;60.80;;;;;;5012345;28;20389;-63
2021/07/13 02:24:29;;;;;;;1.70;1.13;;;23.80;60.80;;;;;;5027421;28;20412;-63
2021/07/13 02:27:02;;;;;;;1.43;1.10;;;23.80;60.80;;;;;;5012230;28;20773;-63
2021/07/13 02:29:30;;;;;;;1.60;1.20;;;23.80;60.80;;;;;;5010941;28;20392;-63
2021/07/13 02:32:03;;;;;;;1.63;1.00;;;23.80;60.80;;;;;;5010565;28;20417;-63
2021/07/13 02:34:32;;;;;;;1.40;1.10;;;23.80;60.80;;;;;;5012082;28;20396;-63
2021/07/13 02:37:00;;;;;;;1.60;1.00;;;23.80;60.80;;;;;;5011993;28;20428;-63
2021/07/13 02:39:27;;;;;;;2.38;1.30;;;23.80;60.80;;;;;;5011504;28;20864;-63
2021/07/13 02:41:53;;;;;;;1.65;1.20;;;23.80;60.80;;;;;;5012126;28;20385;-63
2021/07/13 02:44:21;;;;;;;1.60;1.23;;;23.80;60.70;;;;;;5011945;28;20389;-63
2021/07/13 02:46:47;;;;;;;1.50;1.17;;;23.80;60.80;;;;;;5011956;28;20403;-63
2021/07/13 02:49:21;;;;;;;1.83;1.20;;;23.80;60.80;;;;;;5011548;28;20455;-63
2021/07/13 02:51:48;;;;;;;1.90;1.30;;;23.80;60.90;;;;;;5010466;28;20405;-63
2021/07/13 02:54:16;;;;;;;1.40;1.10;;;23.80;60.80;;;;;;5011826;28;20424;-64
2021/07/13 02:56:43;;;;;;;2.47;1.30;;;23.80;60.90;;;;;;5011900;28;20381;-63
2021/07/13 02:59:10;;;;;;;1.42;1.20;;;23.70;60.80;;;;;;5011683;28;20873;-63
2021/07/13 03:01:36;;;;;;;1.90;1.00;;;23.80;60.90;;;;;;5011883;28;20408;-63
2021/07/13 03:04:05;;;;;;;1.67;1.10;;;23.70;60.80;;;;;;5011806;28;20379;-63
2021/07/13 03:06:31;;;;;;;1.40;1.20;;;23.70;60.80;;;;;;5011930;28;20389;-63
2021/07/13 03:08:57;;;;;;;1.73;1.30;;;23.70;60.80;;;;;;5011798;28;20915;-63
2021/07/13 03:11:23;;;;;;;1.88;1.00;;;23.70;60.90;;;;;;5009856;28;20428;-63
2021/07/13 03:13:49;;;;;;;2.40;1.23;;;23.70;61.00;;;;;;5011469;28;20490;-64
2021/07/13 03:16:15;;;;;;;1.70;1.23;;;23.70;60.90;;;;;;5011604;28;20492;-65
2021/07/13 03:18:41;;;;;;;2.40;1.30;;;23.70;61.30;;;;;;5011545;28;20467;-64
2021/07/13 03:21:07;;;;;;;3.08;1.23;;;23.70;61.50;;;;;;5010801;28;20865;-63
2021/07/13 03:23:37;;;;;;;2.22;1.40;;;23.80;62.90;;;;;;5011333;28;20393;-63
2021/07/13 03:26:03;;;;;;;2.80;1.33;;;23.80;63.00;;;;;;5011646;28;20873;-63
2021/07/13 03:28:30;;;;;;;6.32;1.58;;;23.80;62.10;;;;;;5010064;28;20472;-63
2021/07/13 03:30:57;;;;;;;6.47;1.80;;;23.80;62.70;;;;;;5011109;28;20400;-67
2021/07/13 03:33:23;;;;;;;4.10;1.50;;;23.80;62.70;;;;;;5011139;28;20951;-62
2021/07/13 03:35:50;;;;;;;3.87;1.80;;;23.90;63.10;;;;;;5011320;28;20393;-62
2021/07/13 03:38:17;;;;;;;3.30;1.80;;;23.90;63.00;;;;;;5011469;28;20385;-62
2021/07/13 03:40:45;;;;;;;3.67;1.60;;;23.90;63.00;;;;;;5013083;28;20432;-63
2021/07/13 03:43:11;;;;;;;4.93;1.70;;;23.90;62.90;;;;;;5015013;28;20428;-63
2021/07/13 03:45:37;;;;;;;5.10;2.03;;;23.80;62.70;;;;;;5013476;28;20868;-63
2021/07/13 03:48:03;;;;;;;5.55;2.00;;;23.90;63.10;;;;;;5011003;28;20396;-64
2021/07/13 03:50:34;;;;;;;5.18;2.10;;;23.90;63.00;;;;;;4997140;28;20434;-63
2021/07/13 03:53:01;;;;;;;3.35;1.90;;;23.90;62.80;;;;;;4995374;28;20473;-63
2021/07/13 03:55:27;;;;;;;4.10;2.00;;;23.90;63.00;;;;;;4995065;28;21255;-64
2021/07/13 03:57:54;;;;;;;4.27;1.90;;;23.90;62.30;;;;;;4995315;28;20949;-63
2021/07/13 04:00:22;;;;;;;9.70;2.40;;;23.80;62.10;;;;;;4995119;28;20389;-63
2021/07/13 04:02:47;;;;;;;15.37;2.70;;;23.80;62.00;;;;;;4993739;28;20489;-63
2021/07/13 04:05:14;;;;;;;10.68;2.42;;;23.80;62.10;;;;;;5010076;28;20395;-63
2021/07/13 04:07:40;;;;;;;11.35;2.60;;;23.80;62.40;;;;;;4995276;28;20422;-63
2021/07/13 04:10:14;;;;;;;7.70;2.67;;;23.80;62.40;;;;;;4995228;28;20390;-64
2021/07/13 04:12:42;;;;;;;8.10;2.30;;;23.80;61.70;;;;;;5010107;28;20422;-65
2021/07/13 04:15:08;;;;;;;7.83;2.50;;;23.70;61.80;;;;;;4994732;28;20901;-64
2021/07/13 04:17:34;;;;;;;6.78;2.50;;;23.70;61.80;;;;;;4994756;28;20403;-64
2021/07/13 04:19:59;;;;;;;8.68;2.60;;;23.70;61.70;;;;;;4994947;28;20406;-64
2021/07/13 04:22:25;;;;;;;6.43;2.50;;;23.70;61.60;;;;;;4994824;28;20399;-64
2021/07/13 04:24:51;;;;;;;7.03;2.38;;;23.70;61.50;;;;;;4994882;28;20426;-64
2021/07/13 04:27:16;;;;;;;5.13;2.20;;;23.70;61.70;;;;;;4994303;28;20394;-64
2021/07/13 04:29:42;;;;;;;4.78;2.22;;;23.70;61.50;;;;;;4994735;28;20398;-63
2021/07/13 04:32:08;;;;;;;5.97;2.40;;;23.70;61.50;;;;;;4994618;28;20410;-65
2021/07/13 04:34:34;;;;;;;6.10;2.17;;;23.70;61.50;;;;;;4994589;28;20398;-63
2021/07/13 04:37:00;;;;;;;3.38;1.80;;;23.70;61.40;;;;;;4994702;28;20473;-63
2021/07/13 04:39:26;;;;;;;3.65;1.95;;;23.60;61.40;;;;;;4993821;28;20402;-63
2021/07/13 04:41:52;;;;;;;3.57;1.73;;;23.60;61.40;;;;;;4994659;28;20449;-63
2021/07/13 04:44:17;;;;;;;3.90;1.95;;;23.60;61.30;;;;;;4994443;28;20403;-63
2021/07/13 04:46:43;;;;;;;6.50;1.90;;;23.60;61.30;;;;;;4994416;28;20891;-64
2021/07/13 04:49:09;;;;;;;3.40;1.80;;;23.60;61.40;;;;;;4994439;28;20767;-65
2021/07/13 04:51:35;;;;;;;3.67;2.07;;;23.60;61.30;;;;;;4993873;28;20390;-68
2021/07/13 04:54:01;;;;;;;6.13;2.10;;;23.60;61.30;;;;;;4994260;28;20405;-64
2021/07/13 04:56:27;;;;;;;3.20;1.73;;;23.60;61.30;;;;;;4994357;28;20394;-64
2021/07/13 04:58:53;;;;;;;4.30;1.80;;;23.60;61.30;;;;;;4992655;28;20399;-63
2021/07/13 05:01:18;;;;;;;4.40;1.97;;;23.60;61.30;;;;;;4993473;28;20456;-63
2021/07/13 05:03:44;;;;;;;3.13;1.88;;;23.60;61.30;;;;;;4993996;28;20409;-63
2021/07/13 05:06:10;;;;;;;3.90;1.60;;;23.60;61.30;;;;;;5008446;28;20912;-64
2021/07/13 05:08:36;;;;;;;3.53;2.05;;;23.60;61.20;;;;;;5013675;28;20421;-63
2021/07/13 05:11:02;;;;;;;3.38;1.77;;;23.60;61.40;;;;;;5012336;28;20424;-64
2021/07/13 05:13:28;;;;;;;3.08;1.83;;;23.50;61.60;;;;;;4993366;28;20418;-63
2021/07/13 05:15:53;;;;;;;3.90;2.00;;;23.50;61.60;;;;;;4995721;28;20425;-64
2021/07/13 05:18:19;;;;;;;4.95;2.03;;;23.60;61.70;;;;;;5003439;28;20417;-65
2021/07/13 05:20:50;;;;;;;2.57;1.67;;;23.60;62.10;;;;;;5002719;28;20470;-69
2021/07/13 05:23:16;;;;;;;4.57;1.92;;;23.60;61.60;;;;;;5000340;28;20412;-63
2021/07/13 05:25:42;;;;;;;4.40;1.80;;;23.60;61.50;;;;;;5002083;28;20401;-68
2021/07/13 05:28:12;;;;;;;4.10;1.85;;;23.50;61.40;;;;;;5000452;28;20411;-68
2021/07/13 05:30:40;;;;;;;2.58;1.88;;;23.60;61.40;;;;;;5000402;28;20404;-64
2021/07/13 05:33:07;;;;;;;2.47;1.70;;;23.60;61.40;;;;;;4999692;28;20423;-64
2021/07/13 05:35:33;;;;;;;2.50;1.77;;;23.50;61.30;;;;;;4993188;28;20419;-64
2021/07/13 05:37:58;;;;;;;3.27;1.70;;;23.60;61.30;;;;;;4993670;28;20517;-64
2021/07/13 05:40:24;;;;;;;2.50;1.50;;;23.50;61.30;;;;;;4993267;28;20472;-63
2021/07/13 05:42:50;;;;;;;2.63;1.60;;;23.60;61.30;;;;;;4993441;28;20394;-64
2021/07/13 05:45:16;;;;;;;2.37;1.60;;;23.50;61.20;;;;;;4993200;28;20904;-63
2021/07/13 05:47:42;;;;;;;2.30;1.50;;;23.50;61.20;;;;;;4993217;28;20401;-65
2021/07/13 05:50:09;;;;;;;2.80;1.70;;;23.50;61.20;;;;;;4993301;28;20391;-64
2021/07/13 05:52:36;;;;;;;2.60;1.40;;;23.50;61.80;;;;;;4993184;28;20453;-63
2021/07/13 05:55:03;;;;;;;2.05;1.50;;;23.50;61.20;;;;;;4993264;28;20387;-65
2021/07/13 05:57:31;;;;;;;2.10;1.50;;;23.50;61.20;;;;;;4992925;28;20398;-63
2021/07/13 05:59:57;;;;;;;2.45;1.50;;;23.50;61.30;;;;;;4993176;28;20489;-64
2021/07/13 06:02:23;;;;;;;1.80;1.60;;;23.50;61.20;;;;;;4992682;28;20485;-65
2021/07/13 06:04:50;;;;;;;3.27;1.83;;;23.50;61.10;;;;;;4992772;28;20451;-67
2021/07/13 06:07:16;;;;;;;1.90;1.52;;;23.50;61.00;;;;;;4992574;28;20449;-65
2021/07/13 06:09:41;;;;;;;2.20;1.60;;;23.50;61.10;;;;;;4992849;28;20794;-64
2021/07/13 06:12:07;;;;;;;2.47;1.57;;;23.50;61.00;;;;;;4992744;28;20414;-64
2021/07/13 06:14:36;;;;;;;2.40;1.50;;;23.50;61.00;;;;;;4992501;28;20456;-64
2021/07/13 06:17:06;;;;;;;2.30;1.50;;;23.50;61.10;;;;;;4992459;28;20390;-64
2021/07/13 06:19:33;;;;;;;2.03;1.65;;;23.50;61.00;;;;;;4992053;28;20398;-64
2021/07/13 06:21:59;;;;;;;2.97;1.60;;;23.50;61.10;;;;;;4992625;28;20394;-65
2021/07/13 06:24:25;;;;;;;2.10;1.50;;;23.50;61.10;;;;;;4991372;28;20476;-64
2021/07/13 06:26:51;;;;;;;2.53;1.50;;;23.50;61.00;;;;;;4992888;28;20775;-64
2021/07/13 06:29:17;;;;;;;2.00;1.42;;;23.50;61.00;;;;;;4992400;28;20878;-65
2021/07/13 06:31:42;;;;;;;2.80;1.60;;;23.50;61.00;;;;;;4992408;28;20418;-64
2021/07/13 06:34:08;;;;;;;2.20;1.60;;;23.50;61.10;;;;;;4992370;28;20414;-64
2021/07/13 06:36:34;;;;;;;2.17;1.50;;;23.50;61.00;;;;;;4992307;28;20460;-65
2021/07/13 06:38:59;;;;;;;2.50;1.60;;;23.50;61.10;;;;;;4992350;28;20403;-64
2021/07/13 06:41:25;;;;;;;2.45;1.48;;;23.50;61.10;;;;;;4991952;28;20469;-64
2021/07/13 06:43:51;;;;;;;2.00;1.65;;;23.50;61.00;;;;;;4992455;28;20394;-64
2021/07/13 06:46:16;;;;;;;1.95;1.58;;;23.50;61.00;;;;;;4992449;28;20422;-64
2021/07/13 06:48:42;;;;;;;1.92;1.55;;;23.50;60.90;;;;;;4992217;28;20402;-64
2021/07/13 06:51:08;;;;;;;1.70;1.47;;;23.50;60.90;;;;;;4991093;28;20391;-64
2021/07/13 06:53:33;;;;;;;1.60;1.40;;;23.50;61.00;;;;;;4991718;28;20449;-64
2021/07/13 06:55:59;;;;;;;1.90;1.45;;;23.50;60.90;;;;;;4992234;28;20751;-65
2021/07/13 06:58:25;;;;;;;1.90;1.40;;;23.50;60.90;;;;;;4991268;28;20403;-64
2021/07/13 07:00:50;;;;;;;2.30;1.60;;;23.50;60.90;;;;;;4992228;28;20390;-64
2021/07/13 07:03:16;;;;;;;2.23;1.70;;;23.50;60.90;;;;;;4991881;28;20897;-64
2021/07/13 07:05:42;;;;;;;2.13;1.50;;;23.50;60.90;;;;;;4990424;28;20401;-65
2021/07/13 07:08:08;;;;;;;2.00;1.50;;;23.50;60.90;;;;;;4990957;28;20403;-64
2021/07/13 07:10:35;;;;;;;1.90;1.40;;;23.50;61.00;;;;;;4990796;28;20399;-65
2021/07/13 07:13:00;;;;;;;1.88;1.42;;;23.50;60.90;;;;;;4992064;28;20418;-65
2021/07/13 07:15:28;;;;;;;2.10;1.42;;;23.50;60.90;;;;;;4993026;28;20441;-64
2021/07/13 07:17:54;;;;;;;2.22;1.60;;;23.50;60.90;;;;;;4996261;28;20394;-64
2021/07/13 07:20:22;;;;;;;1.77;1.40;;;23.50;61.00;;;;;;4995775;28;20433;-64
2021/07/13 07:22:49;;;;;;;1.55;1.30;;;23.50;61.00;;;;;;4996074;28;20399;-64
2021/07/13 07:25:15;;;;;;;2.13;1.70;;;23.50;61.00;;;;;;4996019;28;20418;-64
2021/07/13 07:27:41;;;;;;;2.50;1.48;;;23.50;61.00;;;;;;4995596;28;20790;-65
2021/07/13 07:30:09;;;;;;;1.90;1.50;;;23.50;61.00;;;;;;4996012;28;20410;-64
2021/07/13 07:32:37;;;;;;;2.30;1.35;;;23.50;60.90;;;;;;4995703;28;20423;-64
2021/07/13 07:35:04;;;;;;;2.03;1.60;;;23.50;60.90;;;;;;4995963;28;20394;-65
2021/07/13 07:37:30;;;;;;;2.20;1.45;;;23.40;60.90;;;;;;4995378;28;20405;-65
2021/07/13 07:39:56;;;;;;;1.92;1.60;;;23.50;60.90;;;;;;4995771;28;20421;-65
2021/07/13 07:42:22;;;;;;;1.90;1.40;;;23.50;61.00;;;;;;4995729;28;20394;-64
2021/07/13 07:44:48;;;;;;;2.33;1.60;;;23.50;61.00;;;;;;4995641;28;20401;-64
2021/07/13 07:47:14;;;;;;;2.70;1.42;;;23.50;61.00;;;;;;4995625;28;20391;-65
2021/07/13 07:49:39;;;;;;;1.80;1.60;;;23.50;60.90;;;;;;4995115;28;20512;-64
2021/07/13 07:52:05;;;;;;;1.85;1.52;;;23.50;61.00;;;;;;4995048;28;20426;-64
2021/07/13 07:54:31;;;;;;;2.47;1.65;;;23.50;60.90;;;;;;4995067;28;20724;-64
2021/07/13 07:56:57;;;;;;;1.60;1.33;;;23.50;60.90;;;;;;4995516;28;20398;-64
2021/07/13 07:59:23;;;;;;;1.92;1.38;;;23.40;60.90;;;;;;4995242;28;20391;-65
2021/07/13 08:01:48;;;;;;;2.50;1.60;;;23.50;61.00;;;;;;4995173;28;20464;-64
2021/07/13 08:04:14;;;;;;;2.00;1.63;;;23.50;61.00;;;;;;4995443;28;20783;-65
2021/07/13 08:06:40;;;;;;;1.77;1.42;;;23.40;60.90;;;;;;4995303;28;20402;-64
2021/07/13 08:09:09;;;;;;;2.30;1.53;;;23.40;61.00;;;;;;4995312;28;20876;-65
2021/07/13 08:11:36;;;;;;;1.98;1.58;;;23.40;60.90;;;;;;4994682;28;20509;-64
2021/07/13 08:14:04;;;;;;;1.70;1.40;;;23.40;60.90;;;;;;4995131;28;20405;-64
2021/07/13 08:16:35;;;;;;;2.22;1.50;;;23.40;60.90;;;;;;4995111;28;20383;-65
2021/07/13 08:19:01;;;;;;;1.30;1.13;;;23.40;60.90;;;;;;4995025;28;20754;-64
2021/07/13 08:21:27;;;;;;;1.80;1.63;;;23.40;60.90;;;;;;4994290;28;20391;-64
2021/07/13 08:23:53;;;;;;;2.60;1.50;;;23.40;60.80;;;;;;4994766;28;20398;-66
2021/07/13 08:26:19;;;;;;;2.35;1.65;;;23.40;60.80;;;;;;4993094;28;20401;-64
2021/07/13 08:28:44;;;;;;;1.90;1.20;;;23.40;60.90;;;;;;4993670;28;20403;-64
2021/07/13 08:31:10;;;;;;;1.70;1.20;;;23.40;60.90;;;;;;4994906;28;20482;-64
2021/07/13 08:33:35;;;;;;;1.90;1.33;;;23.40;60.80;;;;;;4994193;28;20419;-64
2021/07/13 08:36:01;;;;;;;2.05;1.50;;;23.40;60.90;;;;;;4994836;28;20402;-65
2021/07/13 08:38:27;;;;;;;1.75;1.45;;;23.40;60.90;;;;;;4994658;28;20402;-65
2021/07/13 08:40:52;;;;;;;2.10;1.43;;;23.40;60.90;;;;;;4994501;28;20414;-66
2021/07/13 08:43:19;;;;;;;1.73;1.40;;;23.40;60.90;;;;;;4994575;28;20403;-64
2021/07/13 08:45:47;;;;;;;2.13;1.37;;;23.40;60.80;;;;;;4993143;28;20497;-64
2021/07/13 08:48:14;;;;;;;2.00;1.58;;;23.40;60.90;;;;;;4994446;28;20398;-64
2021/07/13 08:50:40;;;;;;;1.90;1.40;;;23.40;60.90;;;;;;4993094;28;20898;-64
2021/07/13 08:53:06;;;;;;;1.73;1.30;;;23.40;60.90;;;;;;4994166;28;20488;-65
2021/07/13 08:55:34;;;;;;;1.80;1.50;;;23.40;61.00;;;;;;4993972;28;20401;-65
2021/07/13 08:58:00;;;;;;;1.90;1.47;;;23.40;60.90;;;;;;4994474;28;20501;-65
2021/07/13 09:00:26;;;;;;;1.77;1.30;;;23.40;60.90;;;;;;4993041;28;20434;-65
2021/07/13 09:03:16;;;;;;;1.63;1.30;;;23.40;60.90;;;;;;4994284;28;20445;-65
2021/07/13 09:05:44;;;;;;;1.70;1.50;;;23.40;60.90;;;;;;4993761;28;20999;-64
2021/07/13 09:08:12;;;;;;;2.25;1.60;;;23.40;60.80;;;;;;4992904;28;20390;-64
2021/07/13 09:10:37;;;;;;;1.63;1.40;;;23.40;60.90;;;;;;4994197;28;20386;-64
2021/07/13 09:13:03;;;;;;;1.65;1.40;;;23.40;60.80;;;;;;4994082;28;20431;-65
2021/07/13 09:15:29;;;;;;;2.00;1.60;;;23.40;60.80;;;;;;4993587;28;20386;-64
2021/07/13 09:17:54;;;;;;;1.80;1.35;;;23.40;60.80;;;;;;4993982;28;20398;-65
2021/07/13 09:20:26;;;;;;;1.80;1.57;;;23.40;60.90;;;;;;4993872;28;20398;-64
2021/07/13 09:22:59;;;;;;;1.65;1.40;;;23.40;60.90;;;;;;4993816;28;20390;-64
2021/07/13 09:25:30;;;;;;;1.52;1.23;;;23.40;60.90;;;;;;4993072;28;20395;-64
2021/07/13 09:28:18;;;;;;;2.03;1.40;;;23.40;60.90;;;;;;4993603;28;20443;-64
2021/07/13 09:30:47;;;;;;;2.00;1.50;;;23.40;60.90;;;;;;4993775;28;20423;-64
2021/07/13 09:33:13;;;;;;;1.67;1.23;;;23.40;61.00;;;;;;4993615;28;20422;-64
2021/07/13 09:35:40;;;;;;;1.80;1.40;;;23.40;60.80;;;;;;4993229;28;20749;-64
2021/07/13 09:38:06;;;;;;;1.60;1.30;;;23.40;60.90;;;;;;4992830;28;20419;-64
2021/07/13 09:40:38;;;;;;;1.80;1.47;;;23.40;60.80;;;;;;4993262;28;20418;-64
2021/07/13 09:43:05;;;;;;;1.70;1.30;;;23.40;60.80;;;;;;4993549;28;20414;-64
2021/07/13 09:45:33;;;;;;;1.90;1.30;;;23.40;60.80;;;;;;4992920;28;20387;-64
2021/07/13 09:48:12;;;;;;;1.50;1.20;;;23.40;60.80;;;;;;4993436;28;20398;-64
2021/07/13 09:50:48;;;;;;;1.85;1.40;;;23.40;60.70;;;;;;4993272;28;20469;-64
2021/07/13 09:53:18;;;;;;;2.17;1.35;;;23.40;60.80;;;;;;4993276;28;20782;-64
2021/07/13 09:55:48;;;;;;;1.90;1.50;;;23.40;60.70;;;;;;4992791;28;20500;-64
2021/07/13 09:58:15;;;;;;;1.70;1.45;;;23.40;60.70;;;;;;4993221;28;20403;-64
2021/07/13 10:00:42;;;;;;;2.00;1.60;;;23.40;60.70;;;;;;4993123;28;20441;-64
2021/07/13 10:03:15;;;;;;;1.60;1.40;;;23.40;60.80;;;;;;4993132;28;20401;-64
2021/07/13 10:05:44;;;;;;;1.88;1.60;;;23.40;60.70;;;;;;4992692;28;20387;-64
2021/07/13 10:08:13;;;;;;;2.20;1.38;;;23.40;60.80;;;;;;4993034;28;20383;-64
2021/07/13 10:10:40;;;;;;;2.15;1.52;;;23.40;61.10;;;;;;4993242;28;20473;-64
2021/07/13 10:13:07;;;;;;;1.60;1.25;;;23.40;60.80;;;;;;4992856;28;20422;-65
2021/07/13 10:15:36;;;;;;;2.00;1.60;;;23.50;60.90;;;;;;4992545;28;20413;-64
2021/07/13 10:18:03;;;;;;;2.00;1.42;;;23.40;60.80;;;;;;4993061;28;20394;-64
2021/07/13 10:20:30;;;;;;;2.60;1.50;;;23.40;60.80;;;;;;4992872;28;20456;-64
2021/07/13 10:22:57;;;;;;;2.15;1.58;;;23.40;60.90;;;;;;4992727;28;20728;-64
2021/07/13 10:25:39;;;;;;;1.67;1.38;;;23.40;60.80;;;;;;4991150;28;20470;-65
2021/07/13 10:28:06;;;;;;;1.70;1.40;;;23.50;60.80;;;;;;4992674;28;20422;-65
2021/07/13 10:30:31;;;;;;;1.67;1.27;;;23.40;60.80;;;;;;4992648;28;20398;-64
2021/07/13 10:32:58;;;;;;;2.30;1.40;;;23.40;60.80;;;;;;4992629;28;20422;-64
2021/07/13 10:35:28;;;;;;;1.55;1.45;;;23.50;60.90;;;;;;4992530;28;20391;-64
2021/07/13 10:37:56;;;;;;;1.90;1.50;;;23.50;60.90;;;;;;4991278;28;20403;-64
2021/07/13 10:40:27;;;;;;;1.55;1.20;;;23.40;60.70;;;;;;4992241;28;20402;-64
2021/07/13 10:43:14;;;;;;;2.00;1.50;;;23.40;60.80;;;;;;4992043;28;20386;-64
2021/07/13 10:45:42;;;;;;;1.73;1.42;;;23.50;60.80;;;;;;4992149;28;20449;-64
2021/07/13 10:48:10;;;;;;;2.15;1.60;;;23.50;60.80;;;;;;4992438;28;20747;-65
2021/07/13 10:50:42;;;;;;;2.10;1.30;;;23.50;60.90;;;;;;4992124;28;20386;-64
2021/07/13 10:53:13;;;;;;;4.05;1.90;;;23.50;60.90;;;;;;4992305;28;20425;-65
2021/07/13 10:55:44;;;;;;;4.60;1.52;;;23.50;60.90;;;;;;4990560;28;20957;-64
2021/07/13 10:58:10;;;;;;;5.38;1.60;;;23.50;60.90;;;;;;4992239;28;20732;-64
2021/07/13 11:00:47;;;;;;;5.82;1.70;;;23.50;60.90;;;;;;4992149;28;20401;-64
2021/07/13 11:03:32;;;;;;;3.97;1.50;;;23.50;61.00;;;;;;4992477;28;20395;-64
2021/07/13 11:06:18;;;;;;;3.50;1.50;;;23.50;60.90;;;;;;4992244;28;20406;-64
2021/07/13 11:08:47;;;;;;;3.22;1.50;;;23.50;60.80;;;;;;4992190;28;20489;-64
2021/07/13 11:11:22;;;;;;;3.30;1.50;;;23.50;60.80;;;;;;4990895;28;20908;-64
2021/07/13 11:13:49;;;;;;;3.30;1.60;;;23.50;60.80;;;;;;4991712;28;20418;-64
2021/07/13 11:16:21;;;;;;;3.40;1.75;;;23.50;60.90;;;;;;4992119;28;20486;-65
2021/07/13 11:18:46;;;;;;;2.92;1.70;;;23.50;60.80;;;;;;4990925;28;20391;-64
2021/07/13 11:21:17;;;;;;;1.93;1.30;;;23.50;60.80;;;;;;4992088;28;20394;-65
2021/07/13 11:23:54;;;;;;;2.72;1.42;;;23.50;60.90;;;;;;4990374;28;20752;-65
2021/07/13 11:26:22;;;;;;;2.75;1.40;;;23.50;60.70;;;;;;4990537;28;20847;-64
2021/07/13 11:28:55;;;;;;;2.55;1.55;;;23.50;60.90;;;;;;4991780;28;20417;-64
2021/07/13 11:31:30;;;;;;;2.30;1.60;;;23.50;60.70;;;;;;4991996;28;20390;-65
2021/07/13 11:34:05;;;;;;;1.80;1.40;;;23.50;60.80;;;;;;4991664;28;20462;-64
2021/07/13 11:36:53;;;;;;;2.55;1.60;;;23.50;60.80;;;;;;4992015;28;20398;-64
2021/07/13 11:39:29;;;;;;;2.83;1.35;;;23.60;60.70;;;;;;4991521;28;20461;-64
2021/07/13 11:41:58;;;;;;;2.40;1.42;;;23.60;60.80;;;;;;4991568;28;20946;-65
2021/07/13 11:44:24;;;;;;;2.03;1.40;;;23.60;60.80;;;;;;4991777;28;20417;-64
2021/07/13 11:46:51;;;;;;;1.63;1.40;;;23.60;60.70;;;;;;4991828;28;20399;-65
2021/07/13 11:49:20;;;;;;;1.80;1.40;;;23.60;60.70;;;;;;4991689;28;20908;-64
2021/07/13 11:51:59;;;;;;;2.92;1.50;;;23.50;60.60;;;;;;4991220;28;20437;-64
2021/07/13 11:54:27;;;;;;;1.80;1.30;;;23.60;60.70;;;;;;4991723;28;20475;-66
2021/07/13 11:56:57;;;;;;;2.00;1.37;;;23.60;60.70;;;;;;4991779;28;20389;-65
2021/07/13 11:59:25;;;;;;;1.70;1.40;;;23.60;60.80;;;;;;4991752;28;20429;-64
2021/07/13 12:01:54;;;;;;;2.10;1.50;;;23.60;60.70;;;;;;4993162;28;20383;-65
2021/07/13 12:04:21;;;;;;;1.73;1.60;;;23.60;60.70;;;;;;4995414;28;20457;-65
2021/07/13 12:06:52;;;;;;;2.00;1.40;;;23.60;60.70;;;;;;4995357;28;20425;-64
2021/07/13 12:09:27;;;;;;;2.00;1.52;;;23.60;60.80;;;;;;4995267;28;20398;-64
2021/07/13 12:11:55;;;;;;;2.00;1.52;;;23.60;60.70;;;;;;4993398;28;20402;-65
2021/07/13 12:14:23;;;;;;;1.90;1.40;;;23.60;60.70;;;;;;4993914;28;20459;-65
2021/07/13 12:16:49;;;;;;;2.42;1.50;;;23.60;60.70;;;;;;4995087;28;20397;-64
2021/07/13 12:19:17;;;;;;;2.13;1.70;;;23.60;60.70;;;;;;4995057;28;20402;-65
2021/07/13 12:22:00;;;;;;;1.98;1.42;;;23.60;60.70;;;;;;4994604;28;20863;-64
2021/07/13 12:24:40;;;;;;;2.50;1.50;;;23.60;60.70;;;;;;4994906;28;20398;-64
2021/07/13 12:27:12;;;;;;;5.30;1.90;;;23.60;61.10;;;;;;4994942;28;20395;-64
2021/07/13 12:29:44;;;;;;;4.22;1.80;;;23.60;61.70;;;;;;4994435;28;20398;-64
2021/07/13 12:32:21;;;;;;;5.38;2.30;;;23.60;61.70;;;;;;4994821;28;20886;-65
2021/07/13 12:34:50;;;;;;;6.53;2.40;;;23.70;62.70;;;;;;4994776;28;20867;-64
2021/07/13 12:37:27;;;;;;;8.40;2.42;;;23.70;63.10;;;;;;4994727;28;20378;-65
2021/07/13 12:40:05;;;;;;;7.78;2.25;;;23.80;62.90;;;;;;4994165;28;20507;-65
2021/07/13 12:42:38;;;;;;;5.15;2.10;;;23.80;63.10;;;;;;4994651;28;20386;-64
2021/07/13 12:45:12;;;;;;;6.50;2.40;;;23.90;62.80;;;;;;4993793;28;20398;-65
2021/07/13 12:47:41;;;;;;;6.65;2.40;;;23.90;62.90;;;;;;4994101;28;20751;-65
2021/07/13 12:50:20;;;;;;;4.90;2.10;;;23.90;62.70;;;;;;4994519;28;20394;-65
2021/07/13 12:52:57;;;;;;;7.28;2.10;;;23.80;62.50;;;;;;4994464;28;20473;-65